This is the latest recevied weather packets stored in our database for station/object LA3SP-1. If no packets are shown the sender has not sent any weather packets the latest 10 day(s).
| Time | Temp. | Humidity | Pressure | Rain* | Wind** | Luminosity | Snow |
|---|---|---|---|---|---|---|---|
| 1777455656 | 12.78° C | 54% | 1023.4 hPa | 0 mm | - | - | - |
| 1777455055 | 11.67° C | 55% | 1023.4 hPa | 0 mm | - | - | - |
| 1777454453 | 11.67° C | 54% | 1023.5 hPa | 0 mm | - | - | - |
| 1777453251 | 11.11° C | 56% | 1023.5 hPa | 0 mm | - | - | - |
| 1777452650 | 11.11° C | 56% | 1023.5 hPa | 0 mm | - | - | - |
| 1777452048 | 10.56° C | 57% | 1023.5 hPa | 0 mm | - | - | - |
| 1777451447 | 10.56° C | 57% | 1023.6 hPa | 0 mm | - | - | - |
| 1777450845 | 10° C | 61% | 1023.6 hPa | 0 mm | - | - | - |
| 1777449643 | 7.78° C | 64% | 1023.5 hPa | 0 mm | - | - | - |
| 1777449041 | 7.78° C | 64% | 1023.5 hPa | 0 mm | - | - | - |
| 1777448440 | 7.22° C | 65% | 1023.5 hPa | 0 mm | - | - | - |
| 1777447839 | 6.67° C | 66% | 1023.7 hPa | 0 mm | - | - | - |
| 1777447237 | 6.11° C | 66% | 1023.6 hPa | 0 mm | - | - | - |
| 1777446636 | 5.56° C | 66% | 1023.7 hPa | 0 mm | - | - | - |
| 1777445433 | 5.56° C | 67% | 1023.5 hPa | 0 mm | - | - | - |
| 1777445324 | 1.67° C | 69% | 1023.7 hPa | 0 mm | - | - | - |
| 1777444832 | 5° C | 67% | 1023.5 hPa | 0 mm | - | - | - |
| 1777444230 | 5° C | 68% | 1023.5 hPa | 0 mm | - | - | - |
| 1777443629 | 4.44° C | 69% | 1023.5 hPa | 0 mm | - | - | - |
| 1777443028 | 4.44° C | 70% | 1023.6 hPa | 0 mm | - | - | - |
| 1777442426 | 3.89° C | 70% | 1023.6 hPa | 0 mm | - | - | - |
| 1777441224 | 2.22° C | 76% | 1023.7 hPa | 0 mm | - | - | - |
| 1777440622 | 0.56° C | 78% | 1023.5 hPa | 0 mm | - | - | - |
| 1777440021 | 0° C | 77% | 1023.5 hPa | 0 mm | - | - | - |
| 1777439419 | 0° C | 78% | 1023.5 hPa | 0 mm | - | - | - |
* Rain latest 24 hours (hover to see other rain measurements)
** Current wind speed in m/s (hover to see current wind gust speed)